createdAt,value
2022-11-24T00:01:15.407Z,2.80
2022-11-24T00:03:43.747Z,2.83
2022-11-24T00:06:13.276Z,3.17
2022-11-24T00:08:42.960Z,2.58
2022-11-24T00:11:12.338Z,2.25
2022-11-24T00:13:40.216Z,3.63
2022-11-24T00:16:11.898Z,4.28
2022-11-24T00:18:40.913Z,6.45
2022-11-24T00:21:09.079Z,2.95
2022-11-24T00:23:37.299Z,2.80
2022-11-24T00:26:06.931Z,3.47
2022-11-24T00:28:35.581Z,3.60
2022-11-24T00:31:04.541Z,2.75
2022-11-24T00:33:34.271Z,3.88
2022-11-24T00:36:02.009Z,3.88
2022-11-24T00:38:29.674Z,4.80
2022-11-24T00:40:57.349Z,2.13
2022-11-24T00:43:25.031Z,4.10
2022-11-24T00:45:52.833Z,2.90
2022-11-24T00:48:20.634Z,3.55
2022-11-24T00:50:58.076Z,3.53
2022-11-24T00:53:26.196Z,6.10
2022-11-24T00:55:54.684Z,4.43
2022-11-24T00:58:22.921Z,4.22
2022-11-24T01:00:51.285Z,3.00
2022-11-24T01:03:21.041Z,2.25
2022-11-24T01:05:48.726Z,6.85
2022-11-24T01:08:17.729Z,6.30
2022-11-24T01:10:45.415Z,2.03
2022-11-24T01:13:13.297Z,5.15
2022-11-24T01:15:41.068Z,3.70
2022-11-24T01:18:08.754Z,4.95
2022-11-24T01:20:37.640Z,2.55
2022-11-24T01:23:05.341Z,4.22
2022-11-24T01:25:34.297Z,2.92
2022-11-24T01:28:02.000Z,2.97
2022-11-24T01:30:29.770Z,3.53
2022-11-24T01:32:57.585Z,4.93
2022-11-24T01:35:25.273Z,2.15
2022-11-24T01:37:52.977Z,3.38
2022-11-24T01:40:21.028Z,4.55
2022-11-24T01:42:51.966Z,3.42
2022-11-24T01:45:40.576Z,4.53
2022-11-24T01:48:14.019Z,3.08
2022-11-24T01:50:43.384Z,3.65
2022-11-24T01:53:13.536Z,4.72
2022-11-24T01:55:42.052Z,4.90
2022-11-24T01:58:15.141Z,3.47
2022-11-24T02:00:46.151Z,3.83
2022-11-24T02:03:18.987Z,6.47
2022-11-24T02:05:52.071Z,3.15
2022-11-24T02:08:27.542Z,6.55
2022-11-24T02:10:55.868Z,3.13
2022-11-24T02:13:25.892Z,5.38
2022-11-24T02:15:54.244Z,6.80
2022-11-24T02:18:22.224Z,4.30
2022-11-24T02:20:49.872Z,3.97
2022-11-24T02:23:24.865Z,3.72
2022-11-24T02:26:04.170Z,3.90
2022-11-24T02:28:33.476Z,5.15
2022-11-24T02:31:02.888Z,6.10
2022-11-24T02:33:31.259Z,5.32
2022-11-24T02:35:58.961Z,3.97
2022-11-24T02:38:32.185Z,6.38
2022-11-24T02:41:03.781Z,5.95
2022-11-24T02:43:36.089Z,4.35
2022-11-24T02:46:03.898Z,3.53
2022-11-24T02:48:31.603Z,3.80
2022-11-24T02:50:59.283Z,4.63
2022-11-24T02:53:27.057Z,9.02
2022-11-24T02:55:54.747Z,5.82
2022-11-24T02:58:22.728Z,3.22
2022-11-24T03:00:54.144Z,3.50
2022-11-24T03:03:22.216Z,3.92
2022-11-24T03:05:49.887Z,7.30
2022-11-24T03:08:17.607Z,4.78
2022-11-24T03:10:45.665Z,7.10
2022-11-24T03:13:13.377Z,5.70
2022-11-24T03:15:41.189Z,6.63
2022-11-24T03:18:10.810Z,6.22
2022-11-24T03:20:38.520Z,7.03
2022-11-24T03:23:06.203Z,3.08
2022-11-24T03:25:33.893Z,7.45
2022-11-24T03:28:01.601Z,4.30
2022-11-24T03:30:29.394Z,4.70
2022-11-24T03:32:57.265Z,11.48
2022-11-24T03:35:26.677Z,3.63
2022-11-24T03:37:54.394Z,5.53
2022-11-24T03:40:22.147Z,5.65
2022-11-24T03:42:49.841Z,3.58
2022-11-24T03:45:38.464Z,5.30
2022-11-24T03:48:06.033Z,6.93
2022-11-24T03:50:35.034Z,9.40
2022-11-24T03:53:02.695Z,6.30
2022-11-24T03:55:30.463Z,3.88
2022-11-24T03:57:58.171Z,3.90
2022-11-24T04:00:25.840Z,4.70
2022-11-24T04:02:53.543Z,6.38
2022-11-24T04:05:21.343Z,6.10
2022-11-24T04:07:50.439Z,3.78
2022-11-24T04:10:18.276Z,3.13
2022-11-24T04:12:44.982Z,3.50
2022-11-24T04:15:14.699Z,6.20
2022-11-24T04:17:42.584Z,4.88
2022-11-24T04:20:11.723Z,4.63
2022-11-24T04:22:39.896Z,4.40
2022-11-24T04:25:10.779Z,4.95
2022-11-24T04:27:39.101Z,6.05
2022-11-24T04:30:08.462Z,6.65
2022-11-24T04:32:36.739Z,4.30
2022-11-24T04:35:05.388Z,6.30
2022-11-24T04:37:33.175Z,4.28
2022-11-24T04:40:00.846Z,5.35
2022-11-24T04:42:29.861Z,5.57
2022-11-24T04:44:57.701Z,7.07
2022-11-24T04:47:26.811Z,6.72
2022-11-24T04:49:55.088Z,6.65
2022-11-24T04:52:24.323Z,5.65
2022-11-24T04:54:52.490Z,5.38
2022-11-24T04:57:22.653Z,3.72
2022-11-24T04:59:52.526Z,5.00
2022-11-24T05:02:20.839Z,4.32
2022-11-24T05:04:51.232Z,4.80
2022-11-24T05:07:20.079Z,4.50
2022-11-24T05:10:05.906Z,8.57
2022-11-24T05:12:34.159Z,3.28
2022-11-24T05:15:05.040Z,6.10
2022-11-24T05:17:34.584Z,3.95
2022-11-24T05:20:03.031Z,4.97
2022-11-24T05:22:31.629Z,8.38
2022-11-24T05:24:59.557Z,4.10
2022-11-24T05:27:27.274Z,3.50
2022-11-24T05:29:54.995Z,4.28
2022-11-24T05:32:24.516Z,3.75
2022-11-24T05:34:53.768Z,7.03
2022-11-24T05:37:21.519Z,5.65
2022-11-24T05:39:49.266Z,5.10
2022-11-24T05:42:34.775Z,10.55
2022-11-24T05:45:02.469Z,7.10
2022-11-24T05:47:32.075Z,4.57
2022-11-24T05:49:59.814Z,7.70
2022-11-24T05:52:27.544Z,4.22
2022-11-24T05:54:55.544Z,4.35
2022-11-24T05:57:23.392Z,3.22
2022-11-24T05:59:51.128Z,5.70
2022-11-24T06:02:19.172Z,3.10
2022-11-24T06:04:48.379Z,6.70
2022-11-24T06:07:16.290Z,5.93
2022-11-24T06:09:44.441Z,9.38
2022-11-24T06:12:12.957Z,10.07
2022-11-24T06:14:41.380Z,3.08
2022-11-24T06:17:11.111Z,6.38
2022-11-24T06:19:42.102Z,4.68
2022-11-24T06:22:11.528Z,4.93
2022-11-24T06:24:39.322Z,5.80
2022-11-24T06:27:07.707Z,6.93
2022-11-24T06:29:35.478Z,7.13
2022-11-24T06:32:03.579Z,7.05
2022-11-24T06:34:31.655Z,2.88
2022-11-24T06:36:59.589Z,5.40
2022-11-24T06:39:28.720Z,8.07
2022-11-24T06:41:56.912Z,7.47
2022-11-24T06:44:24.907Z,6.90
2022-11-24T06:46:52.752Z,7.80
2022-11-24T06:49:20.512Z,6.82
2022-11-24T06:51:48.296Z,5.40
2022-11-24T06:54:20.973Z,5.90
2022-11-24T06:56:50.084Z,7.43
2022-11-24T06:59:19.256Z,7.95
2022-11-24T07:01:47.664Z,5.03
2022-11-24T07:04:16.083Z,5.70
2022-11-24T07:06:44.695Z,5.87
2022-11-24T07:09:14.273Z,5.32
2022-11-24T07:11:42.748Z,5.07
2022-11-24T07:14:14.551Z,6.78
2022-11-24T07:16:42.404Z,4.38
2022-11-24T07:19:10.890Z,6.57
2022-11-24T07:21:38.771Z,7.35
2022-11-24T07:24:07.537Z,3.65
2022-11-24T07:26:37.220Z,6.53
2022-11-24T07:29:05.714Z,8.70
2022-11-24T07:31:35.003Z,12.45
2022-11-24T07:34:02.761Z,10.88
2022-11-24T07:36:30.479Z,10.75
2022-11-24T07:38:58.366Z,10.68
2022-11-24T07:41:27.293Z,7.90
2022-11-24T07:43:55.064Z,7.57
2022-11-24T07:46:22.847Z,7.25
2022-11-24T07:48:52.221Z,7.40
2022-11-24T07:51:19.969Z,6.95
2022-11-24T07:53:47.715Z,8.23
2022-11-24T07:56:15.506Z,5.95
2022-11-24T07:58:45.944Z,4.00
2022-11-24T08:01:18.277Z,9.48
2022-11-24T08:03:47.152Z,5.80
2022-11-24T08:06:27.421Z,6.50
2022-11-24T08:08:58.887Z,9.20
2022-11-24T08:11:27.449Z,8.70
2022-11-24T08:13:55.918Z,5.05
2022-11-24T08:16:23.825Z,4.13
2022-11-24T08:18:53.445Z,5.47
2022-11-24T08:21:23.815Z,14.82
2022-11-24T08:23:55.612Z,8.63
2022-11-24T08:26:24.703Z,7.88
2022-11-24T08:28:55.613Z,7.25
2022-11-24T08:31:23.639Z,4.28
2022-11-24T08:33:51.517Z,4.50
2022-11-24T08:36:20.298Z,5.10
2022-11-24T08:38:49.932Z,4.13
2022-11-24T08:41:18.416Z,10.13
2022-11-24T08:43:46.210Z,13.90
2022-11-24T08:46:16.841Z,8.70
2022-11-24T08:48:45.110Z,8.48
2022-11-24T08:51:15.178Z,5.05
2022-11-24T08:53:43.446Z,5.05
2022-11-24T08:56:13.943Z,8.57
2022-11-24T08:58:42.687Z,7.75
2022-11-24T09:01:14.383Z,9.52
2022-11-24T09:03:48.590Z,9.07
2022-11-24T09:06:19.658Z,5.07
2022-11-24T09:08:47.349Z,11.37
2022-11-24T09:11:17.306Z,5.43
2022-11-24T09:13:46.021Z,4.28
2022-11-24T09:16:17.585Z,9.73
2022-11-24T09:18:47.238Z,4.82
2022-11-24T09:21:17.229Z,8.98
2022-11-24T09:23:46.858Z,7.68
2022-11-24T09:26:18.555Z,7.80
2022-11-24T09:28:46.908Z,8.10
2022-11-24T09:31:16.544Z,10.95
2022-11-24T09:33:47.196Z,9.85
2022-11-24T09:36:15.299Z,7.40
2022-11-24T09:38:43.079Z,9.45
2022-11-24T09:41:40.041Z,8.32
2022-11-24T09:44:18.261Z,7.70
2022-11-24T09:46:56.937Z,9.40
2022-11-24T09:49:32.317Z,7.50
2022-11-24T09:52:08.729Z,5.22
2022-11-24T09:54:39.420Z,11.63
2022-11-24T09:57:13.020Z,6.68
2022-11-24T09:59:42.025Z,6.68
2022-11-24T10:02:13.034Z,9.90
2022-11-24T10:04:44.176Z,2.95
2022-11-24T10:07:21.790Z,4.32
2022-11-24T10:10:09.210Z,6.15
2022-11-24T10:12:59.184Z,8.75
2022-11-24T10:15:38.841Z,11.40
2022-11-24T10:18:26.308Z,4.53
2022-11-24T10:21:02.585Z,5.97
2022-11-24T10:23:44.631Z,8.80
2022-11-24T10:26:33.014Z,4.45
2022-11-24T10:29:09.725Z,10.13
2022-11-24T10:31:41.508Z,4.07
2022-11-24T10:34:17.741Z,8.40
2022-11-24T10:36:52.367Z,6.75
2022-11-24T10:39:28.209Z,10.98
2022-11-24T10:42:04.908Z,4.75
2022-11-24T10:44:34.388Z,6.03
2022-11-24T10:47:02.454Z,4.03
2022-11-24T10:49:33.541Z,4.88
2022-11-24T10:52:08.093Z,3.97
2022-11-24T10:54:37.066Z,7.13
2022-11-24T10:57:07.366Z,5.00
2022-11-24T10:59:39.249Z,7.00
2022-11-24T11:02:30.906Z,5.90
2022-11-24T11:04:58.728Z,7.68
2022-11-24T11:07:27.949Z,10.52
2022-11-24T11:10:19.219Z,11.88
2022-11-24T11:12:46.964Z,7.80
2022-11-24T11:15:29.969Z,11.75
2022-11-24T11:17:59.851Z,11.35
2022-11-24T11:20:32.480Z,10.88
2022-11-24T11:23:02.563Z,8.82
2022-11-24T11:25:34.164Z,7.25
2022-11-24T11:28:24.120Z,9.20
2022-11-24T11:31:19.925Z,9.63
2022-11-24T11:34:03.228Z,6.45
2022-11-24T11:36:36.234Z,4.63
2022-11-24T11:39:05.505Z,5.07
2022-11-24T11:41:34.774Z,9.35
2022-11-24T11:44:14.235Z,6.15
2022-11-24T11:46:44.738Z,6.90
2022-11-24T11:49:13.633Z,4.47
2022-11-24T11:52:00.848Z,8.10
2022-11-24T11:54:42.124Z,5.80
2022-11-24T11:57:15.778Z,12.05
2022-11-24T11:59:54.945Z,9.48
2022-11-24T12:02:54.536Z,6.65
2022-11-24T12:05:31.583Z,4.53
2022-11-24T12:08:14.588Z,8.40
2022-11-24T12:10:51.566Z,7.15
2022-11-24T12:13:50.361Z,7.50
2022-11-24T12:16:35.365Z,6.38
2022-11-24T12:19:25.472Z,8.18
2022-11-24T12:22:00.133Z,7.18
2022-11-24T12:24:39.258Z,9.60
2022-11-24T12:27:22.247Z,9.70
2022-11-24T12:30:15.106Z,7.13
2022-11-24T12:33:00.913Z,7.38
2022-11-24T12:35:37.280Z,9.90
2022-11-24T12:38:19.620Z,7.75
2022-11-24T12:41:33.740Z,4.15
2022-11-24T12:43:56.271Z,6.63
2022-11-24T12:46:31.825Z,6.18
2022-11-24T12:49:13.209Z,2.90
2022-11-24T12:51:47.052Z,5.95
2022-11-24T12:54:18.527Z,3.92
2022-11-24T12:56:50.658Z,7.45
2022-11-24T12:59:34.241Z,4.30
2022-11-24T13:02:15.144Z,7.18
2022-11-24T13:04:51.104Z,11.15
2022-11-24T13:07:28.000Z,3.08
2022-11-24T13:13:19.248Z,4.05
2022-11-24T13:19:14.841Z,3.25
2022-11-24T13:21:57.623Z,7.78
2022-11-24T13:24:30.627Z,6.88
2022-11-24T13:27:27.589Z,8.60
2022-11-24T13:29:55.740Z,7.68
2022-11-24T13:32:47.163Z,5.35
2022-11-24T13:35:16.440Z,3.60
2022-11-24T13:37:53.523Z,7.15
2022-11-24T13:40:59.820Z,4.60
2022-11-24T13:43:32.612Z,6.78
2022-11-24T13:46:00.584Z,5.82
2022-11-24T13:48:58.492Z,7.25
2022-11-24T13:51:26.948Z,8.93
2022-11-24T13:53:57.779Z,8.50
2022-11-24T13:56:29.623Z,8.40
2022-11-24T13:58:59.925Z,5.55
2022-11-24T14:01:29.606Z,8.57
2022-11-24T14:06:57.234Z,4.40
2022-11-24T14:09:31.792Z,4.90
2022-11-24T14:12:07.204Z,4.63
2022-11-24T14:14:35.256Z,6.75
2022-11-24T14:17:16.237Z,5.22
2022-11-24T14:19:46.217Z,5.57
2022-11-24T14:22:17.132Z,4.53
2022-11-24T14:24:47.493Z,6.53
2022-11-24T14:27:20.508Z,4.50
2022-11-24T14:29:58.315Z,4.82
2022-11-24T14:32:26.246Z,5.53
2022-11-24T14:34:54.129Z,6.72
2022-11-24T14:37:22.403Z,5.65
2022-11-24T14:39:50.318Z,5.72
2022-11-24T14:42:22.175Z,4.53
2022-11-24T14:44:53.777Z,5.32
2022-11-24T14:47:31.373Z,6.70
2022-11-24T14:50:10.381Z,6.75
2022-11-24T14:52:45.590Z,4.55
2022-11-24T14:55:26.688Z,6.57
2022-11-24T14:57:55.841Z,7.13
2022-11-24T15:00:28.598Z,8.10
2022-11-24T15:03:08.554Z,4.50
2022-11-24T15:05:53.337Z,7.47
2022-11-24T15:08:21.398Z,6.65
2022-11-24T15:10:49.610Z,7.22
2022-11-24T15:13:22.033Z,6.25
2022-11-24T15:15:57.600Z,5.05
2022-11-24T15:18:37.281Z,7.00
2022-11-24T15:21:05.317Z,8.40
2022-11-24T15:23:35.015Z,6.72
2022-11-24T15:26:30.678Z,14.73
2022-11-24T15:29:00.483Z,5.70
2022-11-24T15:31:28.388Z,8.57
2022-11-24T15:33:56.169Z,6.13
2022-11-24T15:36:24.011Z,6.10
2022-11-24T15:38:52.028Z,7.15
2022-11-24T15:41:22.235Z,7.53
2022-11-24T15:43:49.916Z,5.78
2022-11-24T15:46:18.995Z,8.77
2022-11-24T15:48:46.743Z,6.53
2022-11-24T15:51:15.709Z,9.30
2022-11-24T15:53:47.462Z,7.68
2022-11-24T15:56:20.051Z,9.38
2022-11-24T15:58:48.391Z,8.57
2022-11-24T16:01:16.165Z,7.35
2022-11-24T16:03:47.432Z,11.93
2022-11-24T16:06:24.042Z,11.13
2022-11-24T16:08:52.687Z,8.57
2022-11-24T16:11:20.443Z,8.18
2022-11-24T16:13:52.292Z,8.23
2022-11-24T16:16:21.902Z,7.20
2022-11-24T16:21:37.109Z,8.48
2022-11-24T16:26:51.142Z,10.38
2022-11-24T16:29:20.851Z,8.98
2022-11-24T16:31:50.280Z,8.18
2022-11-24T16:34:19.378Z,12.02
2022-11-24T16:36:47.101Z,10.00
2022-11-24T16:39:14.764Z,8.15
2022-11-24T16:41:42.531Z,8.57
2022-11-24T16:44:10.320Z,7.28
2022-11-24T16:46:38.034Z,9.23
2022-11-24T16:49:05.757Z,11.25
2022-11-24T16:51:35.306Z,7.88
2022-11-24T16:54:04.049Z,9.60
2022-11-24T16:56:32.325Z,9.73
2022-11-24T16:58:59.982Z,13.55
2022-11-24T17:01:27.843Z,10.77
2022-11-24T17:03:57.142Z,12.02
2022-11-24T17:06:25.267Z,9.65
2022-11-24T17:08:56.359Z,16.40
2022-11-24T17:11:27.169Z,9.98
2022-11-24T17:13:56.676Z,10.48
2022-11-24T17:16:26.107Z,9.98
2022-11-24T17:18:54.495Z,11.43
2022-11-24T17:21:23.958Z,10.07
2022-11-24T17:23:56.015Z,9.43
2022-11-24T17:26:24.864Z,12.32
2022-11-24T17:28:52.852Z,10.73
2022-11-24T17:31:23.246Z,9.90
2022-11-24T17:33:51.739Z,10.00
2022-11-24T17:36:19.742Z,9.88
2022-11-24T17:38:49.322Z,12.30
2022-11-24T17:41:20.721Z,10.98
2022-11-24T17:43:49.524Z,8.98
2022-11-24T17:46:17.488Z,10.13
2022-11-24T17:48:45.258Z,12.52
2022-11-24T17:51:15.612Z,12.70
2022-11-24T17:53:45.361Z,12.20
2022-11-24T17:56:15.307Z,10.75
2022-11-24T17:58:44.604Z,13.93
2022-11-24T18:01:13.483Z,13.93
2022-11-24T18:03:41.924Z,18.38
2022-11-24T18:06:11.371Z,10.52
2022-11-24T18:08:40.866Z,17.15
2022-11-24T18:11:10.457Z,17.63
2022-11-24T18:13:56.699Z,18.20
2022-11-24T18:16:29.879Z,17.90
2022-11-24T18:19:14.329Z,16.52
2022-11-24T18:21:43.640Z,16.35
2022-11-24T18:24:12.900Z,14.90
2022-11-24T18:26:42.143Z,13.85
2022-11-24T18:29:12.213Z,16.08
2022-11-24T18:31:41.309Z,17.35
2022-11-24T18:34:09.156Z,16.83
2022-11-24T18:36:37.013Z,19.75
2022-11-24T18:39:06.742Z,14.32
2022-11-24T18:41:36.831Z,17.70
2022-11-24T18:44:08.348Z,16.40
2022-11-24T18:46:36.735Z,12.55
2022-11-24T18:49:06.783Z,14.52
2022-11-24T18:51:34.733Z,15.00
2022-11-24T18:54:05.186Z,16.33
2022-11-24T18:56:32.930Z,17.27
2022-11-24T18:59:00.950Z,20.02
2022-11-24T19:01:29.914Z,18.17
2022-11-24T19:03:59.647Z,18.23
2022-11-24T19:06:32.514Z,18.77
2022-11-24T19:09:01.859Z,22.42
2022-11-24T19:11:33.642Z,19.75
2022-11-24T19:14:02.319Z,18.38
2022-11-24T19:16:30.411Z,19.38
2022-11-24T19:19:00.163Z,16.58
2022-11-24T19:21:31.276Z,17.85
2022-11-24T19:24:04.571Z,21.48
2022-11-24T19:26:34.722Z,21.50
2022-11-24T19:29:02.536Z,23.35
2022-11-24T19:31:30.320Z,22.58
2022-11-24T19:33:59.504Z,20.75
2022-11-24T19:36:27.258Z,15.85
2022-11-24T19:38:57.703Z,22.05
2022-11-24T19:41:28.139Z,26.27
2022-11-24T19:43:57.981Z,27.70
2022-11-24T19:46:27.320Z,21.85
2022-11-24T19:48:57.139Z,19.17
2022-11-24T19:51:26.675Z,17.02
2022-11-24T19:53:55.737Z,14.05
2022-11-24T19:56:25.218Z,16.80
2022-11-24T19:58:54.765Z,22.25
2022-11-24T20:01:25.002Z,17.52
2022-11-24T20:03:58.675Z,21.33
2022-11-24T20:06:28.004Z,22.20
2022-11-24T20:08:58.401Z,19.80
2022-11-24T20:11:26.164Z,22.75
2022-11-24T20:13:54.346Z,19.48
2022-11-24T20:16:26.439Z,24.17
2022-11-24T20:18:56.672Z,17.50
2022-11-24T20:21:28.497Z,17.65
2022-11-24T20:23:59.771Z,17.98
2022-11-24T20:26:30.569Z,25.17
2022-11-24T20:29:01.050Z,18.45
2022-11-24T20:31:32.006Z,17.60
2022-11-24T20:34:01.482Z,15.63
2022-11-24T20:36:31.127Z,21.90
2022-11-24T20:39:02.410Z,17.65
2022-11-24T20:41:33.317Z,15.52
2022-11-24T20:44:03.803Z,19.33
2022-11-24T20:46:33.463Z,17.20
2022-11-24T20:49:03.319Z,19.08
2022-11-24T20:51:32.884Z,19.17
2022-11-24T20:54:07.328Z,18.30
2022-11-24T20:56:37.343Z,19.42
2022-11-24T20:59:05.642Z,17.67
2022-11-24T21:01:38.025Z,17.80
2022-11-24T21:04:08.360Z,16.77
2022-11-24T21:06:36.504Z,20.75
2022-11-24T21:09:07.841Z,22.92
2022-11-24T21:11:38.341Z,17.27
2022-11-24T21:14:07.264Z,17.42
2022-11-24T21:16:36.827Z,13.13
2022-11-24T21:19:07.172Z,16.50
2022-11-24T21:21:38.915Z,15.98
2022-11-24T21:24:12.192Z,12.70
2022-11-24T21:26:40.976Z,17.10
2022-11-24T21:29:09.484Z,15.68
2022-11-24T21:31:38.525Z,20.45
2022-11-24T21:34:07.740Z,16.13
2022-11-24T21:36:39.939Z,15.50
2022-11-24T21:39:12.580Z,14.10
2022-11-24T21:41:40.448Z,11.93
2022-11-24T21:44:08.262Z,14.27
2022-11-24T21:46:43.657Z,12.02
2022-11-24T21:49:14.111Z,17.52
2022-11-24T21:51:41.763Z,14.93
2022-11-24T21:54:10.948Z,12.85
2022-11-24T21:56:38.671Z,12.52
2022-11-24T21:59:06.346Z,23.85
2022-11-24T22:01:34.061Z,16.23
2022-11-24T22:04:01.906Z,17.42
2022-11-24T22:06:29.591Z,17.45
2022-11-24T22:11:44.079Z,14.82
2022-11-24T22:14:12.057Z,15.57
2022-11-24T22:16:39.779Z,12.60
2022-11-24T22:19:07.572Z,12.32
2022-11-24T22:21:35.363Z,17.08
2022-11-24T22:24:05.185Z,14.90
2022-11-24T22:26:32.956Z,12.68
2022-11-24T22:29:02.104Z,12.93
2022-11-24T22:31:32.113Z,13.73
2022-11-24T22:34:01.109Z,13.40
2022-11-24T22:36:31.106Z,16.00
2022-11-24T22:39:02.900Z,15.50
2022-11-24T22:41:31.726Z,15.05
2022-11-24T22:43:59.555Z,12.10
2022-11-24T22:46:30.583Z,15.63
2022-11-24T22:49:00.347Z,11.60
2022-11-24T22:51:31.136Z,10.50
2022-11-24T22:54:01.167Z,9.18
2022-11-24T22:56:32.013Z,11.45
2022-11-24T22:58:59.981Z,9.88
2022-11-24T23:01:33.472Z,10.27
2022-11-24T23:04:01.729Z,10.40
2022-11-24T23:06:31.691Z,10.02
2022-11-24T23:09:01.147Z,10.52
2022-11-24T23:11:35.105Z,8.53
2022-11-24T23:14:06.607Z,7.32
2022-11-24T23:16:35.791Z,10.00
2022-11-24T23:19:03.924Z,8.85
2022-11-24T23:21:33.549Z,9.25
2022-11-24T23:24:03.526Z,9.23
2022-11-24T23:26:32.752Z,9.18
2022-11-24T23:29:00.836Z,9.73
2022-11-24T23:31:29.545Z,9.73
2022-11-24T23:33:59.455Z,9.45
2022-11-24T23:36:28.272Z,13.77
2022-11-24T23:38:56.299Z,8.90
2022-11-24T23:41:25.462Z,8.45
2022-11-24T23:43:53.999Z,6.55
2022-11-24T23:46:23.164Z,7.90
2022-11-24T23:48:53.063Z,11.93
2022-11-24T23:51:24.180Z,9.43
2022-11-24T23:53:52.509Z,9.70
2022-11-24T23:56:21.905Z,11.80
2022-11-24T23:58:49.793Z,11.88
